Terminal Aerodrome Forecast
Issued by NWS Jackson, MS

Home | Current Version | Previous Version | Text Only | Print | Product List | Glossary On
Versions: 1 2 3 4 5 6 7 8 9 10 11 12 13
000
FTUS44 KJAN 040535
TAFGLH
TAF
KGLH 040535Z 0406/0506 06010KT 4SM -RA BR OVC007
     FM041100 06007KT 4SM BR OVC003
     FM041900 02007KT 4SM BR OVC007
     FM050400 01007KT 4SM BR OVC003=

USA.gov is the U.S. government's official web portal to all federal, state and local government web resources and services.